sensor_id;sensor_type;location;lat;lon;timestamp;pressure;altitude;pressure_sealevel;temperature;humidity
67015;BME280;1033;52.560;13.374;2023-05-14T00:01:45;101502.22;;;12.19;72.15
67015;BME280;1033;52.560;13.374;2023-05-14T00:04:14;101510.28;;;12.13;72.08
67015;BME280;1033;52.560;13.374;2023-05-14T00:06:43;101505.03;;;12.05;72.50
67015;BME280;1033;52.560;13.374;2023-05-14T00:09:12;101503.97;;;12.06;72.54
67015;BME280;1033;52.560;13.374;2023-05-14T00:11:42;101499.59;;;12.05;72.56
67015;BME280;1033;52.560;13.374;2023-05-14T00:14:11;101499.25;;;12.14;72.15
67015;BME280;1033;52.560;13.374;2023-05-14T00:16:40;101497.22;;;12.23;71.61
67015;BME280;1033;52.560;13.374;2023-05-14T00:19:09;101496.78;;;12.19;71.60
67015;BME280;1033;52.560;13.374;2023-05-14T00:21:38;101496.28;;;12.09;71.98
67015;BME280;1033;52.560;13.374;2023-05-14T00:24:08;101497.03;;;12.25;71.67
67015;BME280;1033;52.560;13.374;2023-05-14T00:26:37;101492.41;;;12.25;71.06
67015;BME280;1033;52.560;13.374;2023-05-14T00:29:07;101494.19;;;12.11;72.03
67015;BME280;1033;52.560;13.374;2023-05-14T00:31:36;101495.03;;;12.12;71.80
67015;BME280;1033;52.560;13.374;2023-05-14T00:34:05;101490.03;;;12.09;72.09
67015;BME280;1033;52.560;13.374;2023-05-14T00:36:34;101489.25;;;12.15;71.84
67015;BME280;1033;52.560;13.374;2023-05-14T00:39:03;101484.69;;;12.22;71.66
67015;BME280;1033;52.560;13.374;2023-05-14T00:41:32;101480.44;;;12.13;71.76
67015;BME280;1033;52.560;13.374;2023-05-14T00:44:01;101481.63;;;12.04;72.37
67015;BME280;1033;52.560;13.374;2023-05-14T00:46:32;101476.25;;;12.10;72.11
67015;BME280;1033;52.560;13.374;2023-05-14T00:49:01;101471.16;;;12.01;72.50
67015;BME280;1033;52.560;13.374;2023-05-14T00:51:32;101476.13;;;11.91;73.30
67015;BME280;1033;52.560;13.374;2023-05-14T00:54:01;101468.09;;;11.83;73.60
67015;BME280;1033;52.560;13.374;2023-05-14T00:56:30;101471.47;;;11.85;73.37
67015;BME280;1033;52.560;13.374;2023-05-14T00:59:00;101473.53;;;11.83;73.80
67015;BME280;1033;52.560;13.374;2023-05-14T01:01:30;101475.28;;;11.90;73.58
67015;BME280;1033;52.560;13.374;2023-05-14T01:04:00;101479.16;;;11.81;74.02
67015;BME280;1033;52.560;13.374;2023-05-14T01:06:36;101468.81;;;11.70;74.38
67015;BME280;1033;52.560;13.374;2023-05-14T01:09:12;101475.91;;;11.71;74.69
67015;BME280;1033;52.560;13.374;2023-05-14T01:11:54;101469.78;;;11.62;75.03
67015;BME280;1033;52.560;13.374;2023-05-14T01:14:30;101475.00;;;11.64;75.21
67015;BME280;1033;52.560;13.374;2023-05-14T01:17:04;101482.00;;;11.52;75.76
67015;BME280;1033;52.560;13.374;2023-05-14T01:19:38;101474.25;;;11.49;75.99
67015;BME280;1033;52.560;13.374;2023-05-14T01:22:09;101478.63;;;11.50;76.13
67015;BME280;1033;52.560;13.374;2023-05-14T01:24:38;101468.50;;;11.58;76.06
67015;BME280;1033;52.560;13.374;2023-05-14T01:27:15;101476.69;;;11.44;76.59
67015;BME280;1033;52.560;13.374;2023-05-14T01:29:51;101479.09;;;11.32;77.44
67015;BME280;1033;52.560;13.374;2023-05-14T01:32:22;101475.66;;;11.23;77.98
67015;BME280;1033;52.560;13.374;2023-05-14T01:34:53;101473.41;;;11.27;78.50
67015;BME280;1033;52.560;13.374;2023-05-14T01:37:26;101469.59;;;11.21;78.77
67015;BME280;1033;52.560;13.374;2023-05-14T01:39:56;101471.28;;;11.22;78.76
67015;BME280;1033;52.560;13.374;2023-05-14T01:42:25;101467.06;;;11.20;79.04
67015;BME280;1033;52.560;13.374;2023-05-14T01:44:55;101461.53;;;11.28;78.91
67015;BME280;1033;52.560;13.374;2023-05-14T01:47:25;101457.03;;;11.35;78.28
67015;BME280;1033;52.560;13.374;2023-05-14T01:49:54;101454.72;;;11.32;78.41
67015;BME280;1033;52.560;13.374;2023-05-14T01:52:41;101454.72;;;11.32;78.18
67015;BME280;1033;52.560;13.374;2023-05-14T01:55:28;101456.31;;;11.26;78.46
67015;BME280;1033;52.560;13.374;2023-05-14T01:57:57;101447.59;;;11.31;78.17
67015;BME280;1033;52.560;13.374;2023-05-14T02:00:26;101455.06;;;11.29;78.08
67015;BME280;1033;52.560;13.374;2023-05-14T02:02:58;101462.09;;;11.23;78.08
67015;BME280;1033;52.560;13.374;2023-05-14T02:05:27;101452.91;;;11.18;78.22
67015;BME280;1033;52.560;13.374;2023-05-14T02:07:57;101453.22;;;11.08;78.57
67015;BME280;1033;52.560;13.374;2023-05-14T02:10:26;101451.19;;;10.96;79.58
67015;BME280;1033;52.560;13.374;2023-05-14T02:12:55;101450.34;;;10.95;80.07
67015;BME280;1033;52.560;13.374;2023-05-14T02:15:24;101445.88;;;10.87;80.48
67015;BME280;1033;52.560;13.374;2023-05-14T02:17:53;101450.91;;;10.90;80.85
67015;BME280;1033;52.560;13.374;2023-05-14T02:20:22;101450.16;;;10.97;80.45
67015;BME280;1033;52.560;13.374;2023-05-14T02:22:51;101454.41;;;11.06;79.66
67015;BME280;1033;52.560;13.374;2023-05-14T02:25:22;101451.91;;;11.25;78.83
67015;BME280;1033;52.560;13.374;2023-05-14T02:27:51;101444.31;;;11.36;77.93
67015;BME280;1033;52.560;13.374;2023-05-14T02:30:21;101442.22;;;11.38;77.68
67015;BME280;1033;52.560;13.374;2023-05-14T02:32:50;101442.41;;;11.57;76.35
67015;BME280;1033;52.560;13.374;2023-05-14T02:35:20;101446.69;;;11.66;75.07
67015;BME280;1033;52.560;13.374;2023-05-14T02:37:49;101443.00;;;11.74;74.36
67015;BME280;1033;52.560;13.374;2023-05-14T02:40:18;101445.97;;;11.79;73.57
67015;BME280;1033;52.560;13.374;2023-05-14T02:42:49;101447.06;;;11.85;73.13
67015;BME280;1033;52.560;13.374;2023-05-14T02:45:19;101446.47;;;11.89;73.21
67015;BME280;1033;52.560;13.374;2023-05-14T02:47:48;101447.09;;;11.91;73.26
67015;BME280;1033;52.560;13.374;2023-05-14T02:50:18;101444.34;;;11.85;73.90
67015;BME280;1033;52.560;13.374;2023-05-14T02:52:47;101445.78;;;11.81;73.82
67015;BME280;1033;52.560;13.374;2023-05-14T02:55:16;101444.00;;;11.94;73.58
67015;BME280;1033;52.560;13.374;2023-05-14T02:57:45;101448.47;;;12.08;72.43
67015;BME280;1033;52.560;13.374;2023-05-14T03:00:17;101442.81;;;12.03;72.48
67015;BME280;1033;52.560;13.374;2023-05-14T03:02:47;101434.91;;;12.08;72.48
67015;BME280;1033;52.560;13.374;2023-05-14T03:05:17;101443.66;;;12.04;72.01
67015;BME280;1033;52.560;13.374;2023-05-14T03:07:46;101447.00;;;12.06;71.20
67015;BME280;1033;52.560;13.374;2023-05-14T03:10:16;101458.09;;;12.11;70.34
67015;BME280;1033;52.560;13.374;2023-05-14T03:12:46;101447.94;;;12.19;70.14
67015;BME280;1033;52.560;13.374;2023-05-14T03:15:17;101442.94;;;12.23;69.97
67015;BME280;1033;52.560;13.374;2023-05-14T03:17:47;101443.56;;;12.25;69.78
67015;BME280;1033;52.560;13.374;2023-05-14T03:20:18;101449.22;;;12.30;69.57
67015;BME280;1033;52.560;13.374;2023-05-14T03:22:47;101446.13;;;12.33;69.63
67015;BME280;1033;52.560;13.374;2023-05-14T03:25:17;101448.59;;;12.28;69.61
67015;BME280;1033;52.560;13.374;2023-05-14T03:27:46;101444.66;;;12.31;69.29
67015;BME280;1033;52.560;13.374;2023-05-14T03:30:17;101446.94;;;12.27;69.39
67015;BME280;1033;52.560;13.374;2023-05-14T03:32:47;101438.00;;;12.33;69.39
67015;BME280;1033;52.560;13.374;2023-05-14T03:35:17;101444.03;;;12.35;69.01
67015;BME280;1033;52.560;13.374;2023-05-14T03:37:46;101444.50;;;12.45;68.34
67015;BME280;1033;52.560;13.374;2023-05-14T03:40:16;101436.78;;;12.42;67.98
67015;BME280;1033;52.560;13.374;2023-05-14T03:42:45;101440.13;;;12.44;67.88
67015;BME280;1033;52.560;13.374;2023-05-14T03:45:17;101431.59;;;12.47;68.05
67015;BME280;1033;52.560;13.374;2023-05-14T03:47:46;101434.50;;;12.46;67.96
67015;BME280;1033;52.560;13.374;2023-05-14T03:50:16;101443.06;;;12.49;67.76
67015;BME280;1033;52.560;13.374;2023-05-14T03:52:45;101441.50;;;12.75;66.55
67015;BME280;1033;52.560;13.374;2023-05-14T03:55:14;101431.06;;;12.72;66.16
67015;BME280;1033;52.560;13.374;2023-05-14T03:57:44;101440.44;;;12.69;66.14
67015;BME280;1033;52.560;13.374;2023-05-14T04:00:14;101433.13;;;12.70;65.99
67015;BME280;1033;52.560;13.374;2023-05-14T04:02:44;101429.19;;;12.79;65.18
67015;BME280;1033;52.560;13.374;2023-05-14T04:05:13;101422.34;;;12.83;64.50
67015;BME280;1033;52.560;13.374;2023-05-14T04:07:43;101425.09;;;12.96;63.98
67015;BME280;1033;52.560;13.374;2023-05-14T04:10:13;101425.94;;;13.03;62.86
67015;BME280;1033;52.560;13.374;2023-05-14T04:12:42;101428.88;;;13.08;62.37
67015;BME280;1033;52.560;13.374;2023-05-14T04:15:11;101431.88;;;13.20;61.65
67015;BME280;1033;52.560;13.374;2023-05-14T04:17:40;101422.06;;;13.25;61.45
67015;BME280;1033;52.560;13.374;2023-05-14T04:20:13;101419.53;;;13.37;60.75
67015;BME280;1033;52.560;13.374;2023-05-14T04:22:43;101421.03;;;13.39;60.23
67015;BME280;1033;52.560;13.374;2023-05-14T04:25:12;101423.75;;;13.39;60.33
67015;BME280;1033;52.560;13.374;2023-05-14T04:27:41;101426.66;;;13.38;59.70
67015;BME280;1033;52.560;13.374;2023-05-14T04:30:11;101417.66;;;13.31;59.80
67015;BME280;1033;52.560;13.374;2023-05-14T04:32:40;101417.00;;;13.22;60.14
67015;BME280;1033;52.560;13.374;2023-05-14T04:35:09;101419.31;;;13.19;60.33
67015;BME280;1033;52.560;13.374;2023-05-14T04:37:41;101415.75;;;13.18;60.67
67015;BME280;1033;52.560;13.374;2023-05-14T04:40:10;101417.03;;;13.16;60.70
67015;BME280;1033;52.560;13.374;2023-05-14T04:42:40;101424.78;;;13.25;60.79
67015;BME280;1033;52.560;13.374;2023-05-14T04:45:10;101421.63;;;13.15;61.32
67015;BME280;1033;52.560;13.374;2023-05-14T04:47:40;101410.75;;;13.15;60.99
67015;BME280;1033;52.560;13.374;2023-05-14T04:50:09;101408.88;;;13.29;60.87
67015;BME280;1033;52.560;13.374;2023-05-14T04:52:40;101422.28;;;13.83;59.81
67015;BME280;1033;52.560;13.374;2023-05-14T04:55:10;101415.56;;;16.13;53.67
67015;BME280;1033;52.560;13.374;2023-05-14T04:57:39;101420.44;;;18.37;47.27
67015;BME280;1033;52.560;13.374;2023-05-14T05:00:09;101423.19;;;19.62;43.50
67015;BME280;1033;52.560;13.374;2023-05-14T05:02:40;101417.50;;;20.57;41.20
67015;BME280;1033;52.560;13.374;2023-05-14T05:05:11;101407.88;;;21.30;39.70
67015;BME280;1033;52.560;13.374;2023-05-14T05:07:42;101404.41;;;21.39;39.61
67015;BME280;1033;52.560;13.374;2023-05-14T05:10:12;101404.88;;;21.63;39.11
67015;BME280;1033;52.560;13.374;2023-05-14T05:12:41;101407.88;;;21.61;39.18
67015;BME280;1033;52.560;13.374;2023-05-14T05:15:10;101398.88;;;22.08;37.63
67015;BME280;1033;52.560;13.374;2023-05-14T05:17:40;101400.94;;;22.33;36.79
67015;BME280;1033;52.560;13.374;2023-05-14T05:20:10;101399.16;;;21.75;37.47
67015;BME280;1033;52.560;13.374;2023-05-14T05:22:42;101404.81;;;19.45;41.06
67015;BME280;1033;52.560;13.374;2023-05-14T05:25:11;101401.06;;;17.92;44.30
67015;BME280;1033;52.560;13.374;2023-05-14T05:27:40;101396.69;;;16.96;46.65
67015;BME280;1033;52.560;13.374;2023-05-14T05:30:10;101403.66;;;16.44;48.42
67015;BME280;1033;52.560;13.374;2023-05-14T05:32:40;101408.34;;;16.37;48.77
67015;BME280;1033;52.560;13.374;2023-05-14T05:35:09;101397.13;;;16.27;49.90
67015;BME280;1033;52.560;13.374;2023-05-14T05:37:39;101406.53;;;16.49;49.44
67015;BME280;1033;52.560;13.374;2023-05-14T05:40:11;101401.75;;;16.81;48.51
67015;BME280;1033;52.560;13.374;2023-05-14T05:42:40;101398.72;;;17.01;48.17
67015;BME280;1033;52.560;13.374;2023-05-14T05:45:10;101397.88;;;16.88;48.27
67015;BME280;1033;52.560;13.374;2023-05-14T05:47:39;101405.19;;;16.58;47.52
67015;BME280;1033;52.560;13.374;2023-05-14T05:50:09;101395.09;;;16.40;48.04
67015;BME280;1033;52.560;13.374;2023-05-14T05:52:39;101404.72;;;16.43;48.56
67015;BME280;1033;52.560;13.374;2023-05-14T05:55:10;101401.25;;;16.36;48.02
67015;BME280;1033;52.560;13.374;2023-05-14T05:57:40;101404.94;;;16.41;48.62
67015;BME280;1033;52.560;13.374;2023-05-14T06:00:10;101394.47;;;16.38;48.36
67015;BME280;1033;52.560;13.374;2023-05-14T06:02:43;101394.88;;;16.60;47.91
67015;BME280;1033;52.560;13.374;2023-05-14T06:05:13;101385.38;;;16.63;47.62
67015;BME280;1033;52.560;13.374;2023-05-14T06:07:42;101393.19;;;16.77;47.74
67015;BME280;1033;52.560;13.374;2023-05-14T06:10:13;101390.66;;;16.94;46.42
67015;BME280;1033;52.560;13.374;2023-05-14T06:12:42;101391.22;;;17.26;45.84
67015;BME280;1033;52.560;13.374;2023-05-14T06:15:11;101386.25;;;17.46;45.48
67015;BME280;1033;52.560;13.374;2023-05-14T06:17:41;101394.28;;;17.59;44.86
67015;BME280;1033;52.560;13.374;2023-05-14T06:20:10;101398.19;;;17.63;44.85
67015;BME280;1033;52.560;13.374;2023-05-14T06:22:40;101396.16;;;17.59;44.50
67015;BME280;1033;52.560;13.374;2023-05-14T06:25:09;101394.88;;;17.61;44.22
67015;BME280;1033;52.560;13.374;2023-05-14T06:27:40;101390.47;;;17.60;43.98
67015;BME280;1033;52.560;13.374;2023-05-14T06:30:10;101392.97;;;17.73;43.82
67015;BME280;1033;52.560;13.374;2023-05-14T06:32:40;101386.78;;;17.66;43.40
67015;BME280;1033;52.560;13.374;2023-05-14T06:35:09;101392.72;;;17.63;44.00
67015;BME280;1033;52.560;13.374;2023-05-14T06:37:38;101395.00;;;17.78;43.58
67015;BME280;1033;52.560;13.374;2023-05-14T06:40:08;101392.28;;;17.90;43.29
67015;BME280;1033;52.560;13.374;2023-05-14T06:42:39;101395.34;;;17.81;42.94
67015;BME280;1033;52.560;13.374;2023-05-14T06:45:09;101390.97;;;17.80;43.22
67015;BME280;1033;52.560;13.374;2023-05-14T06:47:38;101391.19;;;18.02;43.22
67015;BME280;1033;52.560;13.374;2023-05-14T06:50:08;101392.25;;;18.13;42.53
67015;BME280;1033;52.560;13.374;2023-05-14T06:52:38;101392.47;;;18.23;43.64
67015;BME280;1033;52.560;13.374;2023-05-14T06:55:07;101389.91;;;18.45;43.53
67015;BME280;1033;52.560;13.374;2023-05-14T06:57:38;101395.50;;;18.61;41.73
67015;BME280;1033;52.560;13.374;2023-05-14T07:00:08;101392.25;;;18.76;41.33
67015;BME280;1033;52.560;13.374;2023-05-14T07:02:38;101385.94;;;18.76;40.94
67015;BME280;1033;52.560;13.374;2023-05-14T07:05:07;101397.19;;;18.62;41.18
67015;BME280;1033;52.560;13.374;2023-05-14T07:07:36;101396.00;;;18.58;41.21
67015;BME280;1033;52.560;13.374;2023-05-14T07:10:06;101394.88;;;18.71;40.90
67015;BME280;1033;52.560;13.374;2023-05-14T07:12:35;101394.53;;;18.67;41.53
67015;BME280;1033;52.560;13.374;2023-05-14T07:15:07;101396.69;;;18.65;41.55
67015;BME280;1033;52.560;13.374;2023-05-14T07:17:36;101382.88;;;18.89;41.13
67015;BME280;1033;52.560;13.374;2023-05-14T07:20:07;101388.38;;;18.89;41.20
67015;BME280;1033;52.560;13.374;2023-05-14T07:22:36;101386.78;;;18.93;39.82
67015;BME280;1033;52.560;13.374;2023-05-14T07:25:05;101393.94;;;18.94;39.86
67015;BME280;1033;52.560;13.374;2023-05-14T07:27:34;101387.81;;;18.87;40.96
67015;BME280;1033;52.560;13.374;2023-05-14T07:30:06;101387.28;;;18.90;40.86
67015;BME280;1033;52.560;13.374;2023-05-14T07:32:35;101380.66;;;18.86;41.32
67015;BME280;1033;52.560;13.374;2023-05-14T07:35:05;101389.47;;;18.88;41.47
67015;BME280;1033;52.560;13.374;2023-05-14T07:37:34;101377.66;;;18.87;41.46
67015;BME280;1033;52.560;13.374;2023-05-14T07:40:03;101379.88;;;19.02;40.50
67015;BME280;1033;52.560;13.374;2023-05-14T07:42:33;101378.94;;;19.13;40.55
67015;BME280;1033;52.560;13.374;2023-05-14T07:45:06;101372.94;;;19.44;40.24
67015;BME280;1033;52.560;13.374;2023-05-14T07:47:36;101367.59;;;19.71;39.72
67015;BME280;1033;52.560;13.374;2023-05-14T07:50:06;101362.09;;;19.88;38.42
67015;BME280;1033;52.560;13.374;2023-05-14T07:52:35;101366.16;;;20.02;38.85
67015;BME280;1033;52.560;13.374;2023-05-14T07:55:05;101371.06;;;20.00;38.49
67015;BME280;1033;52.560;13.374;2023-05-14T07:57:34;101360.66;;;20.41;38.44
67015;BME280;1033;52.560;13.374;2023-05-14T08:00:06;101360.91;;;20.61;37.65
67015;BME280;1033;52.560;13.374;2023-05-14T08:02:42;101361.41;;;21.11;36.68
67015;BME280;1033;52.560;13.374;2023-05-14T08:05:12;101358.56;;;21.01;35.99
67015;BME280;1033;52.560;13.374;2023-05-14T08:07:41;101355.22;;;20.94;36.71
67015;BME280;1033;52.560;13.374;2023-05-14T08:10:10;101353.25;;;20.90;36.38
67015;BME280;1033;52.560;13.374;2023-05-14T08:12:43;101345.75;;;21.12;35.93
67015;BME280;1033;52.560;13.374;2023-05-14T08:15:14;101350.31;;;21.01;36.19
67015;BME280;1033;52.560;13.374;2023-05-14T08:17:43;101351.34;;;20.68;36.20
67015;BME280;1033;52.560;13.374;2023-05-14T08:20:12;101349.06;;;20.87;36.04
67015;BME280;1033;52.560;13.374;2023-05-14T08:22:41;101338.25;;;21.07;35.80
67015;BME280;1033;52.560;13.374;2023-05-14T08:25:10;101341.59;;;21.09;35.17
67015;BME280;1033;52.560;13.374;2023-05-14T08:27:39;101340.56;;;20.62;35.67
67015;BME280;1033;52.560;13.374;2023-05-14T08:30:09;101346.19;;;20.72;35.26
67015;BME280;1033;52.560;13.374;2023-05-14T08:32:40;101345.88;;;20.95;35.52
67015;BME280;1033;52.560;13.374;2023-05-14T08:35:09;101337.44;;;21.07;34.76
67015;BME280;1033;52.560;13.374;2023-05-14T08:37:38;101340.66;;;20.99;35.25
67015;BME280;1033;52.560;13.374;2023-05-14T08:40:08;101330.19;;;21.22;34.73
67015;BME280;1033;52.560;13.374;2023-05-14T08:42:38;101332.81;;;21.39;35.12
67015;BME280;1033;52.560;13.374;2023-05-14T08:45:12;101335.41;;;21.56;35.43
67015;BME280;1033;52.560;13.374;2023-05-14T08:47:47;101331.03;;;21.60;34.66
67015;BME280;1033;52.560;13.374;2023-05-14T08:50:17;101327.78;;;22.10;34.34
67015;BME280;1033;52.560;13.374;2023-05-14T08:52:49;101327.16;;;21.98;34.02
67015;BME280;1033;52.560;13.374;2023-05-14T08:55:19;101322.25;;;22.05;33.95
67015;BME280;1033;52.560;13.374;2023-05-14T08:57:49;101328.38;;;21.75;33.90
67015;BME280;1033;52.560;13.374;2023-05-14T09:00:18;101327.31;;;21.81;33.53
67015;BME280;1033;52.560;13.374;2023-05-14T09:02:49;101321.25;;;21.84;34.47
67015;BME280;1033;52.560;13.374;2023-05-14T09:05:19;101314.69;;;21.90;34.26
67015;BME280;1033;52.560;13.374;2023-05-14T09:07:49;101313.13;;;21.99;33.76
67015;BME280;1033;52.560;13.374;2023-05-14T09:10:18;101308.69;;;21.98;34.26
67015;BME280;1033;52.560;13.374;2023-05-14T09:12:49;101307.19;;;22.33;33.61
67015;BME280;1033;52.560;13.374;2023-05-14T09:15:19;101305.06;;;22.55;32.88
67015;BME280;1033;52.560;13.374;2023-05-14T09:17:49;101307.19;;;22.33;33.20
67015;BME280;1033;52.560;13.374;2023-05-14T09:20:20;101303.75;;;22.73;33.11
67015;BME280;1033;52.560;13.374;2023-05-14T09:22:52;101299.91;;;22.74;31.87
67015;BME280;1033;52.560;13.374;2023-05-14T09:25:26;101291.09;;;23.32;32.09
67015;BME280;1033;52.560;13.374;2023-05-14T09:27:56;101296.91;;;23.06;31.64
67015;BME280;1033;52.560;13.374;2023-05-14T09:30:25;101284.66;;;22.46;32.33
67015;BME280;1033;52.560;13.374;2023-05-14T09:32:56;101293.56;;;22.78;31.66
67015;BME280;1033;52.560;13.374;2023-05-14T09:35:25;101280.19;;;22.30;32.98
67015;BME280;1033;52.560;13.374;2023-05-14T09:37:55;101275.19;;;22.22;33.26
67015;BME280;1033;52.560;13.374;2023-05-14T09:40:24;101269.63;;;22.06;33.84
67015;BME280;1033;52.560;13.374;2023-05-14T09:42:54;101265.19;;;22.05;33.91
67015;BME280;1033;52.560;13.374;2023-05-14T09:45:23;101263.38;;;21.79;33.86
67015;BME280;1033;52.560;13.374;2023-05-14T09:47:52;101258.06;;;21.62;34.47
67015;BME280;1033;52.560;13.374;2023-05-14T09:50:23;101251.28;;;21.85;34.28
67015;BME280;1033;52.560;13.374;2023-05-14T09:52:54;101251.00;;;21.82;33.76
67015;BME280;1033;52.560;13.374;2023-05-14T09:55:24;101242.50;;;21.83;34.27
67015;BME280;1033;52.560;13.374;2023-05-14T09:57:53;101242.50;;;21.83;34.93
67015;BME280;1033;52.560;13.374;2023-05-14T10:00:22;101242.44;;;21.73;35.14
67015;BME280;1033;52.560;13.374;2023-05-14T10:02:53;101225.84;;;21.63;35.35
67015;BME280;1033;52.560;13.374;2023-05-14T10:05:24;101251.03;;;21.40;35.68
67015;BME280;1033;52.560;13.374;2023-05-14T10:07:57;101235.91;;;21.05;36.28
67015;BME280;1033;52.560;13.374;2023-05-14T10:10:28;101231.53;;;21.09;36.29
67015;BME280;1033;52.560;13.374;2023-05-14T10:13:01;101227.50;;;21.22;35.70
67015;BME280;1033;52.560;13.374;2023-05-14T10:15:36;101221.63;;;21.50;35.06
67015;BME280;1033;52.560;13.374;2023-05-14T10:18:09;101219.63;;;21.36;34.39
67015;BME280;1033;52.560;13.374;2023-05-14T10:20:39;101220.00;;;21.54;35.33
67015;BME280;1033;52.560;13.374;2023-05-14T10:23:09;101214.53;;;21.59;34.66
67015;BME280;1033;52.560;13.374;2023-05-14T10:25:39;101201.31;;;21.56;35.03
67015;BME280;1033;52.560;13.374;2023-05-14T10:28:08;101205.69;;;21.10;34.91
67015;BME280;1033;52.560;13.374;2023-05-14T10:30:43;101202.88;;;21.05;35.09
67015;BME280;1033;52.560;13.374;2023-05-14T10:33:14;101196.81;;;21.03;34.80
67015;BME280;1033;52.560;13.374;2023-05-14T10:35:58;101195.97;;;21.40;34.02
67015;BME280;1033;52.560;13.374;2023-05-14T10:38:28;101195.06;;;21.24;34.38
67015;BME280;1033;52.560;13.374;2023-05-14T10:41:02;101183.50;;;21.84;33.71
67015;BME280;1033;52.560;13.374;2023-05-14T10:43:37;101193.69;;;21.79;34.08
67015;BME280;1033;52.560;13.374;2023-05-14T10:46:07;101187.09;;;21.28;33.40
67015;BME280;1033;52.560;13.374;2023-05-14T10:48:38;101191.22;;;21.30;34.00
67015;BME280;1033;52.560;13.374;2023-05-14T10:51:10;101177.88;;;21.12;33.86
67015;BME280;1033;52.560;13.374;2023-05-14T10:53:41;101183.75;;;21.25;33.73
67015;BME280;1033;52.560;13.374;2023-05-14T10:56:12;101190.09;;;21.26;33.70
67015;BME280;1033;52.560;13.374;2023-05-14T10:58:42;101182.81;;;21.47;33.86
67015;BME280;1033;52.560;13.374;2023-05-14T11:01:12;101171.38;;;21.80;33.07
67015;BME280;1033;52.560;13.374;2023-05-14T11:03:42;101179.06;;;21.68;33.44
67015;BME280;1033;52.560;13.374;2023-05-14T11:06:15;101174.22;;;21.95;33.82
67015;BME280;1033;52.560;13.374;2023-05-14T11:08:44;101170.53;;;21.80;33.25
67015;BME280;1033;52.560;13.374;2023-05-14T11:11:13;101177.38;;;21.62;33.44
67015;BME280;1033;52.560;13.374;2023-05-14T11:13:43;101178.84;;;21.28;33.65
67015;BME280;1033;52.560;13.374;2023-05-14T11:16:12;101179.72;;;21.01;33.95
67015;BME280;1033;52.560;13.374;2023-05-14T11:18:59;101175.09;;;20.70;34.30
67015;BME280;1033;52.560;13.374;2023-05-14T11:21:31;101159.84;;;20.89;34.17
67015;BME280;1033;52.560;13.374;2023-05-14T11:24:01;101165.06;;;20.86;34.40
67015;BME280;1033;52.560;13.374;2023-05-14T11:26:32;101158.41;;;20.81;34.30
67015;BME280;1033;52.560;13.374;2023-05-14T11:29:03;101154.91;;;20.96;34.69
67015;BME280;1033;52.560;13.374;2023-05-14T11:31:32;101148.53;;;21.22;34.40
67015;BME280;1033;52.560;13.374;2023-05-14T11:34:01;101158.03;;;21.52;33.88
67015;BME280;1033;52.560;13.374;2023-05-14T11:36:36;101160.19;;;21.45;33.72
67015;BME280;1033;52.560;13.374;2023-05-14T11:39:05;101157.53;;;21.60;33.69
67015;BME280;1033;52.560;13.374;2023-05-14T11:41:35;101149.75;;;21.47;33.92
67015;BME280;1033;52.560;13.374;2023-05-14T11:44:04;101152.13;;;21.85;33.16
67015;BME280;1033;52.560;13.374;2023-05-14T11:46:35;101140.63;;;22.03;33.11
67015;BME280;1033;52.560;13.374;2023-05-14T11:49:04;101132.34;;;22.03;33.42
67015;BME280;1033;52.560;13.374;2023-05-14T11:51:35;101130.13;;;21.95;33.24
67015;BME280;1033;52.560;13.374;2023-05-14T11:54:05;101132.91;;;22.05;33.31
67015;BME280;1033;52.560;13.374;2023-05-14T11:56:37;101132.66;;;22.27;33.63
67015;BME280;1033;52.560;13.374;2023-05-14T11:59:06;101129.59;;;22.08;33.31
67015;BME280;1033;52.560;13.374;2023-05-14T12:01:38;101128.78;;;22.08;33.44
67015;BME280;1033;52.560;13.374;2023-05-14T12:04:07;101127.41;;;22.00;33.74
67015;BME280;1033;52.560;13.374;2023-05-14T12:06:39;101120.69;;;21.76;33.77
67015;BME280;1033;52.560;13.374;2023-05-14T12:09:08;101122.28;;;21.57;33.89
67015;BME280;1033;52.560;13.374;2023-05-14T12:11:43;101123.78;;;21.28;34.55
67015;BME280;1033;52.560;13.374;2023-05-14T12:14:15;101117.22;;;21.34;34.67
67015;BME280;1033;52.560;13.374;2023-05-14T12:16:45;101109.47;;;21.31;34.95
67015;BME280;1033;52.560;13.374;2023-05-14T12:19:15;101108.66;;;21.35;34.50
67015;BME280;1033;52.560;13.374;2023-05-14T12:21:47;101105.03;;;21.19;35.16
67015;BME280;1033;52.560;13.374;2023-05-14T12:24:18;101109.56;;;21.46;34.80
67015;BME280;1033;52.560;13.374;2023-05-14T12:26:48;101102.88;;;21.32;34.98
67015;BME280;1033;52.560;13.374;2023-05-14T12:29:19;101108.50;;;21.57;35.17
67015;BME280;1033;52.560;13.374;2023-05-14T12:31:49;101104.72;;;21.73;34.62
67015;BME280;1033;52.560;13.374;2023-05-14T12:34:18;101095.28;;;21.64;34.50
67015;BME280;1033;52.560;13.374;2023-05-14T12:36:49;101102.44;;;21.55;35.02
67015;BME280;1033;52.560;13.374;2023-05-14T12:39:18;101095.59;;;21.67;34.86
67015;BME280;1033;52.560;13.374;2023-05-14T12:41:47;101094.84;;;21.92;34.64
67015;BME280;1033;52.560;13.374;2023-05-14T12:44:17;101085.50;;;22.14;33.36
67015;BME280;1033;52.560;13.374;2023-05-14T12:46:46;101089.38;;;22.33;33.20
67015;BME280;1033;52.560;13.374;2023-05-14T12:49:15;101086.09;;;22.41;31.81
67015;BME280;1033;52.560;13.374;2023-05-14T12:51:44;101073.09;;;22.51;31.98
67015;BME280;1033;52.560;13.374;2023-05-14T12:54:14;101067.06;;;22.44;32.09
67015;BME280;1033;52.560;13.374;2023-05-14T12:56:43;101076.72;;;22.27;32.63
67015;BME280;1033;52.560;13.374;2023-05-14T12:59:12;101072.84;;;22.28;31.81
67015;BME280;1033;52.560;13.374;2023-05-14T13:01:41;101069.53;;;22.16;31.95
67015;BME280;1033;52.560;13.374;2023-05-14T13:04:11;101064.03;;;22.36;32.40
67015;BME280;1033;52.560;13.374;2023-05-14T13:06:40;101066.22;;;22.64;32.17